createdAt,value
2022-08-25T00:00:34.104Z,46
2022-08-25T00:01:35.052Z,46
2022-08-25T00:02:35.957Z,46
2022-08-25T00:03:39.491Z,46
2022-08-25T00:04:40.033Z,46
2022-08-25T00:05:41.575Z,45
2022-08-25T00:06:42.390Z,45
2022-08-25T00:07:42.794Z,45
2022-08-25T00:08:43.193Z,45
2022-08-25T00:09:43.594Z,45
2022-08-25T00:10:43.996Z,45
2022-08-25T00:12:04.163Z,45
2022-08-25T00:13:04.551Z,45
2022-08-25T00:14:04.915Z,45
2022-08-25T00:15:05.321Z,44
2022-08-25T00:16:05.775Z,44
2022-08-25T00:17:06.617Z,44
2022-08-25T00:18:16.978Z,44
2022-08-25T00:19:20.165Z,44
2022-08-25T00:20:20.571Z,44
2022-08-25T00:21:21.038Z,44
2022-08-25T00:22:21.489Z,44
2022-08-25T00:23:21.860Z,44
2022-08-25T00:24:22.264Z,44
2022-08-25T00:25:22.669Z,44
2022-08-25T00:26:23.069Z,44
2022-08-25T00:27:23.476Z,44
2022-08-25T00:28:23.834Z,44
2022-08-25T00:29:24.235Z,45
2022-08-25T00:30:24.604Z,45
2022-08-25T00:31:37.857Z,45
2022-08-25T00:32:39.829Z,45
2022-08-25T00:33:40.633Z,45
2022-08-25T00:34:41.032Z,45
2022-08-25T00:35:41.395Z,45
2022-08-25T00:36:41.804Z,45
2022-08-25T00:37:42.606Z,45
2022-08-25T00:38:42.963Z,45
2022-08-25T00:39:43.360Z,45
2022-08-25T00:40:43.764Z,45
2022-08-25T00:41:44.160Z,45
2022-08-25T00:42:44.835Z,45
2022-08-25T00:43:45.197Z,45
2022-08-25T00:44:45.578Z,45
2022-08-25T00:45:45.988Z,45
2022-08-25T00:46:46.406Z,45
2022-08-25T00:47:47.195Z,45
2022-08-25T00:48:47.916Z,45
2022-08-25T00:49:48.311Z,45
2022-08-25T00:50:48.711Z,45
2022-08-25T00:51:49.108Z,46
2022-08-25T00:52:49.806Z,46
2022-08-25T00:53:50.185Z,46
2022-08-25T00:54:50.574Z,46
2022-08-25T00:55:50.937Z,46
2022-08-25T00:56:51.296Z,46
2022-08-25T00:57:52.102Z,46
2022-08-25T00:58:53.486Z,46
2022-08-25T00:59:53.898Z,46
2022-08-25T01:00:54.305Z,45
2022-08-25T01:01:54.956Z,45
2022-08-25T01:02:55.894Z,45
2022-08-25T01:03:56.788Z,45
2022-08-25T01:04:57.153Z,45
2022-08-25T01:05:57.507Z,45
2022-08-25T01:06:59.262Z,45
2022-08-25T01:07:59.927Z,45
2022-08-25T01:09:00.298Z,45
2022-08-25T01:10:00.671Z,45
2022-08-25T01:11:01.072Z,45
2022-08-25T01:12:01.429Z,45
2022-08-25T01:13:02.240Z,45
2022-08-25T01:14:02.639Z,45
2022-08-25T01:15:03.041Z,45
2022-08-25T01:16:03.464Z,45
2022-08-25T01:17:03.882Z,46
2022-08-25T01:18:04.970Z,46
2022-08-25T01:19:05.842Z,46
2022-08-25T01:20:06.218Z,46
2022-08-25T01:21:06.605Z,46
2022-08-25T01:22:07.001Z,46
2022-08-25T01:23:07.802Z,46
2022-08-25T01:24:08.168Z,46
2022-08-25T01:25:08.544Z,46
2022-08-25T01:26:08.944Z,46
2022-08-25T01:27:09.315Z,46
2022-08-25T01:28:10.107Z,47
2022-08-25T01:29:10.466Z,47
2022-08-25T01:30:10.822Z,47
2022-08-25T01:31:23.679Z,47
2022-08-25T01:32:24.751Z,47
2022-08-25T01:33:25.463Z,47
2022-08-25T01:34:26.273Z,47
2022-08-25T01:35:26.684Z,47
2022-08-25T01:36:27.059Z,47
2022-08-25T01:37:27.430Z,47
2022-08-25T01:38:28.224Z,47
2022-08-25T01:39:28.618Z,48
2022-08-25T01:40:29.066Z,48
2022-08-25T01:41:29.492Z,48
2022-08-25T01:42:29.863Z,48
2022-08-25T01:43:30.682Z,48
2022-08-25T01:44:31.064Z,48
2022-08-25T01:45:31.457Z,48
2022-08-25T01:46:31.927Z,48
2022-08-25T01:47:32.357Z,48
2022-08-25T01:48:33.020Z,48
2022-08-25T01:49:33.832Z,48
2022-08-25T01:50:34.225Z,48
2022-08-25T01:51:34.585Z,48
2022-08-25T01:52:34.989Z,48
2022-08-25T01:53:35.796Z,48
2022-08-25T01:54:36.176Z,48
2022-08-25T01:55:36.572Z,48
2022-08-25T01:56:36.970Z,48
2022-08-25T01:57:37.373Z,48
2022-08-25T01:58:38.169Z,48
2022-08-25T01:59:38.565Z,48
2022-08-25T02:00:38.956Z,49
2022-08-25T02:01:39.419Z,49
2022-08-25T02:02:42.024Z,49
2022-08-25T02:03:43.649Z,49
2022-08-25T02:04:44.702Z,49
2022-08-25T02:05:45.104Z,49
2022-08-25T02:06:48.678Z,49
2022-08-25T02:07:49.074Z,49
2022-08-25T02:08:49.873Z,49
2022-08-25T02:09:50.256Z,49
2022-08-25T02:10:50.621Z,49
2022-08-25T02:11:50.992Z,49
2022-08-25T02:12:51.362Z,50
2022-08-25T02:13:55.183Z,50
2022-08-25T02:14:55.567Z,50
2022-08-25T02:15:55.961Z,50
2022-08-25T02:16:56.453Z,50
2022-08-25T02:17:56.918Z,50
2022-08-25T02:18:57.717Z,50
2022-08-25T02:19:58.523Z,50
2022-08-25T02:20:58.922Z,50
2022-08-25T02:21:59.314Z,50
2022-08-25T02:22:59.706Z,50
2022-08-25T02:24:00.493Z,50
2022-08-25T02:25:01.029Z,50
2022-08-25T02:26:01.394Z,50
2022-08-25T02:27:01.760Z,50
2022-08-25T02:28:02.153Z,50
2022-08-25T02:29:02.958Z,50
2022-08-25T02:30:03.355Z,50
2022-08-25T02:31:03.773Z,51
2022-08-25T02:32:04.214Z,51
2022-08-25T02:33:04.578Z,51
2022-08-25T02:34:05.397Z,51
2022-08-25T02:35:06.197Z,51
2022-08-25T02:36:06.565Z,51
2022-08-25T02:37:06.929Z,50
2022-08-25T02:38:07.323Z,50
2022-08-25T02:39:08.139Z,50
2022-08-25T02:40:08.541Z,50
2022-08-25T02:41:09.036Z,50
2022-08-25T02:42:09.443Z,50
2022-08-25T02:43:09.825Z,50
2022-08-25T02:44:10.633Z,50
2022-08-25T02:45:11.026Z,50
2022-08-25T02:46:11.586Z,50
2022-08-25T02:47:12.041Z,50
2022-08-25T02:48:12.441Z,50
2022-08-25T02:49:13.114Z,50
2022-08-25T02:50:13.841Z,50
2022-08-25T02:51:14.263Z,50
2022-08-25T02:52:14.627Z,50
2022-08-25T02:53:15.023Z,50
2022-08-25T02:54:15.703Z,49
2022-08-25T02:55:16.156Z,49
2022-08-25T02:56:16.543Z,49
2022-08-25T02:57:16.933Z,49
2022-08-25T02:58:17.325Z,50
2022-08-25T02:59:18.055Z,50
2022-08-25T03:00:18.454Z,50
2022-08-25T03:01:19.227Z,50
2022-08-25T03:02:19.657Z,50
2022-08-25T03:03:20.059Z,50
2022-08-25T03:04:20.796Z,50
2022-08-25T03:05:21.597Z,50
2022-08-25T03:06:21.996Z,50
2022-08-25T03:07:22.406Z,50
2022-08-25T03:08:25.208Z,50
2022-08-25T03:09:26.016Z,50
2022-08-25T03:10:26.430Z,50
2022-08-25T03:11:26.811Z,51
2022-08-25T03:12:27.191Z,51
2022-08-25T03:13:27.599Z,51
2022-08-25T03:14:28.409Z,51
2022-08-25T03:15:30.512Z,51
2022-08-25T03:16:31.139Z,51
2022-08-25T03:17:32.103Z,51
2022-08-25T03:18:35.991Z,52
2022-08-25T03:19:36.680Z,52
2022-08-25T03:20:37.329Z,52
2022-08-25T03:21:37.733Z,52
2022-08-25T03:22:38.115Z,52
2022-08-25T03:23:38.505Z,52
2022-08-25T03:24:39.228Z,52
2022-08-25T03:25:39.653Z,52
2022-08-25T03:26:40.010Z,52
2022-08-25T03:27:40.402Z,52
2022-08-25T03:28:40.774Z,52
2022-08-25T03:29:41.582Z,52
2022-08-25T03:30:41.972Z,52
2022-08-25T03:31:42.406Z,53
2022-08-25T03:32:42.792Z,53
2022-08-25T03:33:43.167Z,53
2022-08-25T03:34:43.837Z,53
2022-08-25T03:35:44.654Z,53
2022-08-25T03:36:45.084Z,53
2022-08-25T03:37:45.474Z,53
2022-08-25T03:38:45.866Z,53
2022-08-25T03:39:46.730Z,53
2022-08-25T03:40:47.145Z,53
2022-08-25T03:41:47.506Z,53
2022-08-25T03:42:47.897Z,53
2022-08-25T03:43:48.755Z,53
2022-08-25T03:44:49.678Z,53
2022-08-25T03:45:50.115Z,53
2022-08-25T03:46:50.568Z,53
2022-08-25T03:47:50.936Z,53
2022-08-25T03:48:51.336Z,53
2022-08-25T03:49:52.142Z,53
2022-08-25T03:50:52.898Z,53
2022-08-25T03:51:53.252Z,52
2022-08-25T03:52:53.641Z,52
2022-08-25T03:53:54.036Z,52
2022-08-25T03:54:54.800Z,52
2022-08-25T03:55:55.211Z,52
2022-08-25T03:56:55.568Z,52
2022-08-25T03:57:55.952Z,52
2022-08-25T03:58:56.344Z,52
2022-08-25T03:59:57.131Z,52
2022-08-25T04:00:57.546Z,52
2022-08-25T04:01:58.010Z,52
2022-08-25T04:02:58.437Z,52
2022-08-25T04:03:58.827Z,52
2022-08-25T04:04:59.623Z,52
2022-08-25T04:06:00.523Z,52
2022-08-25T04:07:00.902Z,52
2022-08-25T04:08:01.298Z,52
2022-08-25T04:09:01.696Z,52
2022-08-25T04:10:02.391Z,52
2022-08-25T04:11:02.786Z,52
2022-08-25T04:12:03.158Z,52
2022-08-25T04:13:03.770Z,52
2022-08-25T04:14:04.155Z,52
2022-08-25T04:15:04.862Z,52
2022-08-25T04:16:05.309Z,52
2022-08-25T04:17:05.751Z,52
2022-08-25T04:18:06.299Z,53
2022-08-25T04:19:06.770Z,53
2022-08-25T04:20:07.570Z,53
2022-08-25T04:21:07.965Z,53
2022-08-25T04:22:08.359Z,53
2022-08-25T04:23:08.774Z,53
2022-08-25T04:24:09.167Z,53
2022-08-25T04:25:09.951Z,53
2022-08-25T04:26:10.336Z,53
2022-08-25T04:27:10.726Z,53
2022-08-25T04:28:11.122Z,53
2022-08-25T04:29:11.482Z,53
2022-08-25T04:30:12.270Z,53
2022-08-25T04:31:12.630Z,53
2022-08-25T04:32:13.106Z,53
2022-08-25T04:33:13.557Z,53
2022-08-25T04:34:29.432Z,53
2022-08-25T04:35:31.671Z,53
2022-08-25T04:36:32.598Z,53
2022-08-25T04:37:32.969Z,54
2022-08-25T04:38:33.365Z,54
2022-08-25T04:39:34.163Z,54
2022-08-25T04:40:34.615Z,54
2022-08-25T04:41:35.101Z,54
2022-08-25T04:42:35.813Z,54
2022-08-25T04:43:36.203Z,54
2022-08-25T04:44:36.889Z,54
2022-08-25T04:45:37.337Z,54
2022-08-25T04:46:37.756Z,54
2022-08-25T04:47:38.166Z,54
2022-08-25T04:48:38.569Z,54
2022-08-25T04:49:38.992Z,55
2022-08-25T04:50:39.678Z,55
2022-08-25T04:51:40.074Z,55
2022-08-25T04:52:40.436Z,55
2022-08-25T04:53:40.846Z,55
2022-08-25T04:54:41.503Z,55
2022-08-25T04:55:41.883Z,55
2022-08-25T04:56:42.242Z,55
2022-08-25T04:57:42.639Z,55
2022-08-25T04:58:43.033Z,55
2022-08-25T04:59:43.850Z,55
2022-08-25T05:00:44.317Z,55
2022-08-25T05:01:44.722Z,55
2022-08-25T05:02:45.098Z,55
2022-08-25T05:03:45.707Z,55
2022-08-25T05:04:46.547Z,55
2022-08-25T05:05:47.365Z,54
2022-08-25T05:06:47.759Z,54
2022-08-25T05:07:48.119Z,54
2022-08-25T05:08:48.913Z,54
2022-08-25T05:09:49.317Z,54
2022-08-25T05:10:49.680Z,54
2022-08-25T05:11:50.068Z,54
2022-08-25T05:12:50.440Z,54
2022-08-25T05:13:51.814Z,54
2022-08-25T05:14:52.261Z,54
2022-08-25T05:15:52.658Z,54
2022-08-25T05:16:53.125Z,54
2022-08-25T05:17:55.998Z,54
2022-08-25T05:18:56.637Z,54
2022-08-25T05:19:57.051Z,54
2022-08-25T05:20:57.736Z,54
2022-08-25T05:21:58.380Z,54
2022-08-25T05:22:58.794Z,54
2022-08-25T05:23:59.519Z,54
2022-08-25T05:24:59.918Z,54
2022-08-25T05:26:00.331Z,54
2022-08-25T05:27:01.289Z,54
2022-08-25T05:28:01.666Z,54
2022-08-25T05:29:02.452Z,54
2022-08-25T05:30:02.848Z,54
2022-08-25T05:31:03.239Z,54
2022-08-25T05:32:03.659Z,54
2022-08-25T05:33:04.036Z,54
2022-08-25T05:34:04.727Z,54
2022-08-25T05:35:05.124Z,54
2022-08-25T05:36:05.862Z,54
2022-08-25T05:37:10.339Z,54
2022-08-25T05:38:15.420Z,54
2022-08-25T05:39:16.495Z,54
2022-08-25T05:40:16.954Z,54
2022-08-25T05:41:17.370Z,54
2022-08-25T05:42:17.756Z,54
2022-08-25T05:43:18.148Z,54
2022-08-25T05:44:21.169Z,54
2022-08-25T05:45:22.014Z,54
2022-08-25T05:46:22.451Z,54
2022-08-25T05:47:22.837Z,54
2022-08-25T05:48:23.228Z,54
2022-08-25T05:49:24.021Z,54
2022-08-25T05:50:24.417Z,54
2022-08-25T05:51:25.231Z,54
2022-08-25T05:52:25.620Z,54
2022-08-25T05:53:25.986Z,55
2022-08-25T05:54:26.678Z,55
2022-08-25T05:55:27.068Z,55
2022-08-25T05:56:27.465Z,55
2022-08-25T05:57:27.834Z,55
2022-08-25T05:58:28.235Z,55
2022-08-25T05:59:28.987Z,54
2022-08-25T06:00:29.382Z,54
2022-08-25T06:01:29.850Z,54
2022-08-25T06:02:30.292Z,54
2022-08-25T06:03:30.738Z,54
2022-08-25T06:04:31.218Z,54
2022-08-25T06:05:31.610Z,54
2022-08-25T06:06:32.315Z,54
2022-08-25T06:07:32.713Z,54
2022-08-25T06:08:33.096Z,54
2022-08-25T06:09:33.748Z,54
2022-08-25T06:10:34.140Z,54
2022-08-25T06:11:34.530Z,54
2022-08-25T06:12:34.922Z,54
2022-08-25T06:13:35.319Z,54
2022-08-25T06:14:36.073Z,54
2022-08-25T06:15:37.343Z,54
2022-08-25T06:16:37.767Z,53
2022-08-25T06:17:38.170Z,53
2022-08-25T06:18:38.534Z,54
2022-08-25T06:19:41.218Z,54
2022-08-25T06:20:41.775Z,53
2022-08-25T06:21:42.466Z,54
2022-08-25T06:22:42.840Z,53
2022-08-25T06:23:43.365Z,53
2022-08-25T06:24:44.140Z,54
2022-08-25T06:25:44.534Z,53
2022-08-25T06:26:44.922Z,53
2022-08-25T06:27:45.323Z,53
2022-08-25T06:28:45.706Z,54
2022-08-25T06:29:46.083Z,54
2022-08-25T06:30:46.504Z,53
2022-08-25T06:31:46.940Z,53
2022-08-25T06:32:47.374Z,53
2022-08-25T06:33:47.771Z,53
2022-08-25T06:34:48.567Z,53
2022-08-25T06:35:48.961Z,53
2022-08-25T06:36:49.676Z,52
2022-08-25T06:37:50.078Z,52
2022-08-25T06:38:50.476Z,53
2022-08-25T06:39:51.211Z,52
2022-08-25T06:40:51.696Z,52
2022-08-25T06:41:52.067Z,51
2022-08-25T06:42:52.437Z,51
2022-08-25T06:43:55.952Z,51
2022-08-25T06:45:05.940Z,49
2022-08-25T06:46:06.349Z,49
2022-08-25T06:47:06.806Z,49
2022-08-25T06:48:07.336Z,51
2022-08-25T06:49:07.821Z,49
2022-08-25T06:50:08.571Z,49
2022-08-25T06:51:08.960Z,49
2022-08-25T06:52:14.872Z,49
2022-08-25T06:53:15.260Z,49
2022-08-25T06:54:15.645Z,49
2022-08-25T06:55:16.477Z,49
2022-08-25T06:56:16.918Z,49
2022-08-25T06:57:17.281Z,49
2022-08-25T06:58:17.683Z,49
2022-08-25T06:59:18.058Z,48
2022-08-25T07:00:18.735Z,48
2022-08-25T07:01:20.358Z,48
2022-08-25T07:02:22.251Z,48
2022-08-25T07:04:24.805Z,48
2022-08-25T07:05:34.051Z,47
2022-08-25T07:06:43.489Z,46
2022-08-25T07:07:44.361Z,46
2022-08-25T07:08:44.786Z,46
2022-08-25T07:09:45.492Z,46
2022-08-25T07:10:48.027Z,47
2022-08-25T07:11:48.681Z,47
2022-08-25T07:12:49.066Z,46
2022-08-25T07:13:49.438Z,46
2022-08-25T07:15:10.116Z,46
2022-08-25T07:16:20.023Z,46
2022-08-25T07:17:20.469Z,46
2022-08-25T07:18:23.452Z,45
2022-08-25T07:19:23.835Z,45
2022-08-25T07:21:27.877Z,45
2022-08-25T07:22:31.774Z,45
2022-08-25T07:23:32.525Z,45
2022-08-25T07:24:33.307Z,44
2022-08-25T07:25:33.730Z,44
2022-08-25T07:26:37.703Z,44
2022-08-25T07:27:38.480Z,44
2022-08-25T07:28:47.274Z,43
2022-08-25T07:29:48.391Z,42
2022-08-25T07:30:51.706Z,42
2022-08-25T07:31:52.582Z,42
2022-08-25T07:32:55.189Z,42
2022-08-25T07:33:55.921Z,42
2022-08-25T07:34:58.141Z,42
2022-08-25T07:35:58.552Z,42
2022-08-25T07:36:58.947Z,42
2022-08-25T07:37:59.343Z,41
2022-08-25T07:38:59.910Z,41
2022-08-25T07:40:00.569Z,41
2022-08-25T07:41:01.012Z,41
2022-08-25T07:42:01.400Z,41
2022-08-25T07:43:02.089Z,40
2022-08-25T07:44:02.521Z,40
2022-08-25T07:45:03.080Z,40
2022-08-25T07:46:03.483Z,40
2022-08-25T07:47:03.892Z,40
2022-08-25T07:48:04.295Z,40
2022-08-25T07:49:04.653Z,41
2022-08-25T07:50:16.384Z,42
2022-08-25T07:51:16.813Z,41
2022-08-25T07:52:17.238Z,41
2022-08-25T07:53:17.755Z,41
2022-08-25T07:54:18.332Z,41
2022-08-25T07:55:18.893Z,40
2022-08-25T07:56:19.285Z,40
2022-08-25T07:57:19.646Z,39
2022-08-25T07:58:20.040Z,39
2022-08-25T07:59:20.492Z,39
2022-08-25T08:00:21.088Z,39
2022-08-25T08:01:21.542Z,39
2022-08-25T08:02:22.059Z,39
2022-08-25T08:03:44.791Z,39
2022-08-25T08:04:50.740Z,40
2022-08-25T08:05:51.148Z,39
2022-08-25T08:06:51.540Z,39
2022-08-25T08:07:51.936Z,39
2022-08-25T08:08:54.609Z,39
2022-08-25T08:10:25.675Z,39
2022-08-25T08:11:38.504Z,38
2022-08-25T08:12:42.887Z,38
2022-08-25T08:13:43.263Z,38
2022-08-25T08:14:45.128Z,38
2022-08-25T08:15:46.395Z,38
2022-08-25T08:16:46.831Z,38
2022-08-25T08:17:47.224Z,38
2022-08-25T08:18:48.597Z,38
2022-08-25T08:19:49.354Z,37
2022-08-25T08:20:49.727Z,37
2022-08-25T08:21:50.135Z,37
2022-08-25T08:22:52.943Z,37
2022-08-25T08:23:58.151Z,37
2022-08-25T08:24:59.654Z,37
2022-08-25T08:26:00.020Z,37
2022-08-25T08:27:00.417Z,37
2022-08-25T08:28:00.874Z,36
2022-08-25T08:29:01.670Z,37
2022-08-25T08:30:02.467Z,37
2022-08-25T08:31:02.895Z,37
2022-08-25T08:32:03.329Z,37
2022-08-25T08:33:10.184Z,37
2022-08-25T08:34:12.482Z,38
2022-08-25T08:35:13.480Z,37
2022-08-25T08:36:14.174Z,36
2022-08-25T08:37:15.721Z,35
2022-08-25T08:38:22.136Z,36
2022-08-25T08:39:27.291Z,36
2022-08-25T08:40:28.176Z,36
2022-08-25T08:41:29.616Z,35
2022-08-25T08:42:30.007Z,35
2022-08-25T08:43:33.320Z,35
2022-08-25T08:44:34.246Z,36
2022-08-25T08:45:40.255Z,36
2022-08-25T08:46:41.238Z,36
2022-08-25T08:47:41.624Z,35
2022-08-25T08:48:42.032Z,35
2022-08-25T08:49:42.715Z,34
2022-08-25T08:50:43.985Z,34
2022-08-25T08:51:44.382Z,33
2022-08-25T08:52:48.816Z,33
2022-08-25T08:53:49.252Z,33
2022-08-25T08:54:50.066Z,33
2022-08-25T08:55:52.855Z,34
2022-08-25T08:56:53.457Z,33
2022-08-25T08:57:53.884Z,34
2022-08-25T08:58:54.951Z,33
2022-08-25T08:59:55.622Z,34
2022-08-25T09:00:58.721Z,34
2022-08-25T09:01:59.259Z,33
2022-08-25T09:03:01.050Z,33
2022-08-25T09:04:02.827Z,32
2022-08-25T09:05:03.988Z,32
2022-08-25T09:06:04.389Z,32
2022-08-25T09:07:07.334Z,32
2022-08-25T09:08:10.480Z,31
2022-08-25T09:09:12.201Z,30
2022-08-25T09:10:12.919Z,31
2022-08-25T09:11:16.268Z,32
2022-08-25T09:12:19.253Z,32
2022-08-25T09:13:19.633Z,32
2022-08-25T09:14:20.033Z,31
2022-08-25T09:15:20.834Z,31
2022-08-25T09:16:33.053Z,32
2022-08-25T09:17:34.662Z,32
2022-08-25T09:18:37.836Z,32
2022-08-25T09:19:42.346Z,33
2022-08-25T09:20:42.985Z,33
2022-08-25T09:21:43.446Z,31
2022-08-25T09:22:44.191Z,32
2022-08-25T09:23:47.218Z,32
2022-08-25T09:24:47.921Z,32
2022-08-25T09:25:53.493Z,32
2022-08-25T09:26:54.673Z,31
2022-08-25T09:27:55.101Z,30
2022-08-25T09:28:55.515Z,31
2022-08-25T09:29:56.331Z,30
2022-08-25T09:30:56.754Z,30
2022-08-25T09:31:57.187Z,30
2022-08-25T09:32:57.721Z,30
2022-08-25T09:34:00.087Z,31
2022-08-25T09:35:00.835Z,31
2022-08-25T09:36:01.521Z,30
2022-08-25T09:37:06.471Z,30
2022-08-25T09:38:08.414Z,30
2022-08-25T09:39:09.939Z,30
2022-08-25T09:40:10.903Z,30
2022-08-25T09:41:11.533Z,30
2022-08-25T09:42:12.201Z,30
2022-08-25T09:43:12.590Z,30
2022-08-25T09:44:12.964Z,31
2022-08-25T09:45:13.660Z,30
2022-08-25T09:46:14.712Z,30
2022-08-25T09:47:15.121Z,31
2022-08-25T09:48:15.519Z,31
2022-08-25T09:49:15.926Z,31
2022-08-25T09:50:18.627Z,31
2022-08-25T09:51:19.179Z,31
2022-08-25T09:52:20.003Z,31
2022-08-25T09:53:21.851Z,31
2022-08-25T09:54:25.563Z,31
2022-08-25T09:55:34.685Z,31
2022-08-25T09:56:35.767Z,31
2022-08-25T09:57:36.630Z,30
2022-08-25T09:58:37.020Z,31
2022-08-25T09:59:37.716Z,31
2022-08-25T10:00:38.081Z,30
2022-08-25T10:01:38.801Z,31
2022-08-25T10:02:39.225Z,31
2022-08-25T10:03:39.635Z,31
2022-08-25T10:04:40.597Z,30
2022-08-25T10:05:41.015Z,30
2022-08-25T10:06:41.445Z,30
2022-08-25T10:07:41.857Z,30
2022-08-25T10:08:42.213Z,30
2022-08-25T10:09:43.395Z,30
2022-08-25T10:10:43.794Z,30
2022-08-25T10:11:44.189Z,30
2022-08-25T10:12:44.943Z,30
2022-08-25T10:13:51.845Z,30
2022-08-25T10:14:52.661Z,30
2022-08-25T10:15:54.976Z,29
2022-08-25T10:16:55.406Z,29
2022-08-25T10:17:55.806Z,28
2022-08-25T10:18:58.457Z,29
2022-08-25T10:19:59.211Z,29
2022-08-25T10:20:59.752Z,28
2022-08-25T10:22:00.171Z,27
2022-08-25T10:23:00.690Z,28
2022-08-25T10:24:01.109Z,28
2022-08-25T10:25:04.637Z,28
2022-08-25T10:26:05.249Z,28
2022-08-25T10:27:05.942Z,28
2022-08-25T10:28:06.824Z,27
2022-08-25T10:29:08.159Z,27
2022-08-25T10:30:10.889Z,28
2022-08-25T10:31:11.415Z,28
2022-08-25T10:32:12.336Z,28
2022-08-25T10:33:12.845Z,28
2022-08-25T10:34:13.248Z,28
2022-08-25T10:35:15.255Z,29
2022-08-25T10:36:17.143Z,28
2022-08-25T10:37:20.918Z,28
2022-08-25T10:38:21.510Z,29
2022-08-25T10:39:34.600Z,29
2022-08-25T10:40:37.722Z,29
2022-08-25T10:41:38.166Z,28
2022-08-25T10:42:38.573Z,29
2022-08-25T10:43:43.502Z,28
2022-08-25T10:44:45.263Z,28
2022-08-25T10:45:45.966Z,28
2022-08-25T10:46:46.498Z,28
2022-08-25T10:47:47.073Z,28
2022-08-25T10:48:47.486Z,28
2022-08-25T10:49:50.002Z,28
2022-08-25T10:50:50.625Z,28
2022-08-25T10:51:51.474Z,28
2022-08-25T10:52:51.990Z,27
2022-08-25T10:53:52.353Z,26
2022-08-25T10:54:53.119Z,26
2022-08-25T10:55:55.269Z,26
2022-08-25T10:57:00.906Z,26
2022-08-25T10:58:02.132Z,26
2022-08-25T10:59:03.023Z,25
2022-08-25T11:00:04.106Z,25
2022-08-25T11:01:04.647Z,26
2022-08-25T11:02:06.346Z,26
2022-08-25T11:03:06.963Z,25
2022-08-25T11:04:07.520Z,25
2022-08-25T11:05:08.323Z,24
2022-08-25T11:06:09.793Z,24
2022-08-25T11:07:10.198Z,24
2022-08-25T11:08:10.628Z,25
2022-08-25T11:09:11.970Z,25
2022-08-25T11:10:12.694Z,25
2022-08-25T11:11:13.082Z,25
2022-08-25T11:12:13.468Z,25
2022-08-25T11:13:13.870Z,25
2022-08-25T11:14:14.615Z,25
2022-08-25T11:15:16.088Z,25
2022-08-25T11:16:21.746Z,25
2022-08-25T11:17:22.144Z,25
2022-08-25T11:18:22.530Z,25
2022-08-25T11:19:22.936Z,26
2022-08-25T11:20:26.833Z,24
2022-08-25T11:21:27.690Z,24
2022-08-25T11:22:28.111Z,24
2022-08-25T11:23:28.497Z,25
2022-08-25T11:24:28.869Z,23
2022-08-25T11:25:29.639Z,23
2022-08-25T11:26:32.031Z,23
2022-08-25T11:27:35.345Z,24
2022-08-25T11:28:36.072Z,24
2022-08-25T11:29:36.766Z,24
2022-08-25T11:30:37.509Z,24
2022-08-25T11:31:40.589Z,24
2022-08-25T11:32:41.244Z,24
2022-08-25T11:33:42.117Z,24
2022-08-25T11:34:43.502Z,24
2022-08-25T11:35:44.678Z,24
2022-08-25T11:36:45.856Z,23
2022-08-25T11:37:46.303Z,23
2022-08-25T11:38:48.018Z,23
2022-08-25T11:39:48.656Z,23
2022-08-25T11:40:50.158Z,23
2022-08-25T11:41:50.784Z,23
2022-08-25T11:42:51.186Z,23
2022-08-25T11:43:51.578Z,23
2022-08-25T11:44:53.744Z,23
2022-08-25T11:45:55.029Z,23
2022-08-25T11:46:55.489Z,23
2022-08-25T11:47:55.896Z,23
2022-08-25T11:48:56.407Z,23
2022-08-25T11:49:57.966Z,23
2022-08-25T11:50:58.862Z,23
2022-08-25T11:52:02.937Z,23
2022-08-25T11:53:03.674Z,23
2022-08-25T11:54:04.082Z,23
2022-08-25T11:55:05.405Z,23
2022-08-25T11:56:06.349Z,23
2022-08-25T11:57:08.054Z,23
2022-08-25T11:58:08.954Z,24
2022-08-25T11:59:11.200Z,24
2022-08-25T12:00:11.960Z,23
2022-08-25T12:01:12.677Z,23
2022-08-25T12:02:13.077Z,23
2022-08-25T12:03:13.442Z,23
2022-08-25T12:04:14.829Z,24
2022-08-25T12:05:15.724Z,23
2022-08-25T12:06:16.593Z,23
2022-08-25T12:07:17.282Z,22
2022-08-25T12:08:18.820Z,22
2022-08-25T12:09:19.231Z,22
2022-08-25T12:10:19.624Z,22
2022-08-25T12:11:20.263Z,22
2022-08-25T12:12:20.628Z,22
2022-08-25T12:13:21.015Z,22
2022-08-25T12:14:21.411Z,22
2022-08-25T12:15:22.143Z,21
2022-08-25T12:16:22.888Z,21
2022-08-25T12:17:23.278Z,22
2022-08-25T12:18:23.665Z,22
2022-08-25T12:19:24.958Z,22
2022-08-25T12:20:25.405Z,22
2022-08-25T12:21:26.194Z,22
2022-08-25T12:22:27.571Z,21
2022-08-25T12:23:27.964Z,21
2022-08-25T12:24:28.368Z,21
2022-08-25T12:25:28.733Z,21
2022-08-25T12:26:34.531Z,21
2022-08-25T12:27:34.941Z,22
2022-08-25T12:28:35.385Z,22
2022-08-25T12:29:35.783Z,22
2022-08-25T12:30:36.883Z,22
2022-08-25T12:31:37.829Z,22
2022-08-25T12:32:38.990Z,22
2022-08-25T12:33:40.136Z,22
2022-08-25T12:34:40.494Z,21
2022-08-25T12:35:40.864Z,21
2022-08-25T12:36:42.385Z,21
2022-08-25T12:37:42.780Z,21
2022-08-25T12:38:46.291Z,21
2022-08-25T12:39:50.123Z,21
2022-08-25T12:40:50.562Z,21
2022-08-25T12:41:52.637Z,21
2022-08-25T12:42:53.024Z,21
2022-08-25T12:43:53.411Z,21
2022-08-25T12:44:53.775Z,21
2022-08-25T12:45:54.618Z,21
2022-08-25T12:46:55.781Z,20
2022-08-25T12:47:56.147Z,21
2022-08-25T12:48:56.550Z,21
2022-08-25T12:49:56.920Z,20
2022-08-25T12:50:57.651Z,20
2022-08-25T12:51:58.980Z,20
2022-08-25T12:52:59.579Z,19
2022-08-25T12:53:59.960Z,19
2022-08-25T12:55:00.861Z,19
2022-08-25T12:56:01.274Z,20
2022-08-25T12:57:02.438Z,19
2022-08-25T12:58:05.332Z,19
2022-08-25T12:59:05.716Z,19
2022-08-25T13:00:06.268Z,18
2022-08-25T13:01:07.558Z,18
2022-08-25T13:02:10.194Z,15
2022-08-25T13:03:11.468Z,15
2022-08-25T13:04:12.201Z,15
2022-08-25T13:05:14.251Z,15
2022-08-25T13:06:14.645Z,14
2022-08-25T13:07:16.010Z,15
2022-08-25T13:08:16.427Z,15
2022-08-25T13:09:16.817Z,15
2022-08-25T13:10:17.207Z,15
2022-08-25T13:11:17.596Z,16
2022-08-25T13:12:20.872Z,16
2022-08-25T13:13:21.282Z,16
2022-08-25T13:14:21.754Z,17
2022-08-25T13:15:22.214Z,18
2022-08-25T13:16:28.397Z,18
2022-08-25T13:17:29.974Z,19
2022-08-25T13:18:30.357Z,17
2022-08-25T13:19:35.022Z,16
2022-08-25T13:20:35.912Z,16
2022-08-25T13:21:37.208Z,17
2022-08-25T13:22:38.143Z,18
2022-08-25T13:23:38.562Z,14
2022-08-25T13:25:58.340Z,13
2022-08-25T13:26:58.944Z,13
2022-08-25T13:28:00.299Z,12
2022-08-25T13:29:01.120Z,12
2022-08-25T13:30:03.952Z,13
2022-08-25T13:31:04.752Z,12
2022-08-25T13:32:09.450Z,11
2022-08-25T13:33:10.516Z,11
2022-08-25T13:34:10.880Z,11
2022-08-25T13:35:20.400Z,11
2022-08-25T13:36:20.919Z,11
2022-08-25T13:37:21.321Z,11
2022-08-25T13:38:23.718Z,11
2022-08-25T13:39:45.526Z,11
2022-08-25T13:40:55.593Z,11
2022-08-25T13:41:55.961Z,11
2022-08-25T13:42:56.375Z,11
2022-08-25T13:44:00.971Z,12
2022-08-25T13:45:02.369Z,12
2022-08-25T13:46:02.800Z,13
2022-08-25T13:47:03.634Z,14
2022-08-25T13:48:05.877Z,14
2022-08-25T13:49:06.703Z,14
2022-08-25T13:50:09.118Z,14
2022-08-25T13:51:09.910Z,13
2022-08-25T13:52:11.315Z,13
2022-08-25T13:53:12.055Z,12
2022-08-25T13:54:12.843Z,13
2022-08-25T13:55:13.237Z,13
2022-08-25T13:56:13.669Z,13
2022-08-25T13:57:15.179Z,14
2022-08-25T13:58:24.222Z,14
2022-08-25T13:59:25.863Z,14
2022-08-25T14:00:31.762Z,14
2022-08-25T14:01:47.141Z,14
2022-08-25T14:02:50.318Z,14
2022-08-25T14:03:51.310Z,13
2022-08-25T14:04:52.879Z,13
2022-08-25T14:05:54.307Z,13
2022-08-25T14:06:54.683Z,14
2022-08-25T14:08:09.269Z,14
2022-08-25T14:09:16.913Z,13
2022-08-25T14:10:17.730Z,14
2022-08-25T14:11:18.150Z,14
2022-08-25T14:12:18.629Z,13
2022-08-25T14:13:19.052Z,13
2022-08-25T14:14:19.441Z,12
2022-08-25T14:15:20.259Z,13
2022-08-25T14:16:22.349Z,13
2022-08-25T14:17:39.298Z,13
2022-08-25T14:18:40.304Z,13
2022-08-25T14:19:40.993Z,13
2022-08-25T14:20:41.806Z,13
2022-08-25T14:21:42.270Z,13
2022-08-25T14:22:42.667Z,13
2022-08-25T14:23:43.032Z,13
2022-08-25T14:24:43.422Z,13
2022-08-25T14:25:44.166Z,13
2022-08-25T14:26:54.310Z,13
2022-08-25T14:28:07.483Z,13
2022-08-25T14:29:08.421Z,13
2022-08-25T14:30:10.312Z,11
2022-08-25T14:31:11.134Z,11
2022-08-25T14:32:12.076Z,11
2022-08-25T14:33:12.439Z,11
2022-08-25T14:34:12.834Z,10
2022-08-25T14:35:13.644Z,10
2022-08-25T14:36:18.690Z,11
2022-08-25T14:37:25.638Z,11
2022-08-25T14:38:26.164Z,11